Time;durP1;ratioP1;P1;durP2;ratioP2;P2;SDS_P1;SDS_P2;PMS_P1;PMS_P2;Temp;Humidity;BMP_temperature;BMP_pressure;BME280_temperature;BME280_humidity;BME280_pressure;Samples;Min_cycle;Max_cycle;Signal;HPM_P1;HPM_P2
2021/09/28 00:00:40;;;;;;;19.08;16.45;;;17.40;99.90;;;;;;2089792;28;20021;-68
2021/09/28 00:01:41;;;;;;;18.50;15.70;;;17.40;99.90;;;;;;2090099;28;20071;-68
2021/09/28 00:02:41;;;;;;;17.95;15.20;;;17.40;99.90;;;;;;2089998;28;20461;-69
2021/09/28 00:03:42;;;;;;;17.42;15.43;;;17.30;99.90;;;;;;2089371;28;20064;-68
2021/09/28 00:04:42;;;;;;;18.60;15.45;;;17.40;99.90;;;;;;2089203;28;20101;-68
2021/09/28 00:05:44;;;;;;;19.77;15.93;;;17.30;99.90;;;;;;2090104;28;20486;-68
2021/09/28 00:06:45;;;;;;;17.95;15.65;;;17.30;99.90;;;;;;2090449;28;20028;-69
2021/09/28 00:07:45;;;;;;;17.65;15.50;;;17.30;99.90;;;;;;2090977;28;20013;-68
2021/09/28 00:08:46;;;;;;;16.77;14.68;;;17.30;99.90;;;;;;2089923;28;20060;-69
2021/09/28 00:09:46;;;;;;;16.23;14.45;;;17.30;99.90;;;;;;2089563;28;20057;-68
2021/09/28 00:10:47;;;;;;;18.58;15.43;;;17.20;99.90;;;;;;2090935;28;20430;-68
2021/09/28 00:11:51;;;;;;;18.42;15.40;;;17.30;99.90;;;;;;2090892;28;20032;-68
2021/09/28 00:12:52;;;;;;;18.17;15.73;;;17.20;99.90;;;;;;2090001;28;20517;-69
2021/09/28 00:13:52;;;;;;;21.20;17.10;;;17.20;99.90;;;;;;2089393;28;20096;-69
2021/09/28 00:14:53;;;;;;;18.27;15.80;;;17.20;99.90;;;;;;2090101;28;20506;-69
2021/09/28 00:15:54;;;;;;;20.88;16.52;;;17.20;99.90;;;;;;2090071;28;20517;-69
2021/09/28 00:16:54;;;;;;;19.95;17.30;;;17.20;99.90;;;;;;2089451;28;20029;-69
2021/09/28 00:17:55;;;;;;;18.58;16.23;;;17.20;99.90;;;;;;2089439;28;20035;-68
2021/09/28 00:18:55;;;;;;;17.90;15.65;;;17.20;99.90;;;;;;2089226;28;20086;-69
2021/09/28 00:19:56;;;;;;;18.13;15.52;;;17.20;99.90;;;;;;2088754;28;20040;-69
2021/09/28 00:20:57;;;;;;;17.92;15.25;;;17.20;99.90;;;;;;2089440;28;20148;-68
2021/09/28 00:21:58;;;;;;;16.00;14.23;;;17.20;99.90;;;;;;2089470;28;20033;-69
2021/09/28 00:22:58;;;;;;;17.10;14.50;;;17.20;99.90;;;;;;2089536;28;20184;-69
2021/09/28 00:23:59;;;;;;;15.63;13.90;;;17.10;99.90;;;;;;2089525;28;20079;-69
2021/09/28 00:25:00;;;;;;;15.75;13.93;;;17.10;99.90;;;;;;2090163;28;20053;-69
2021/09/28 00:26:01;;;;;;;16.45;14.35;;;17.10;99.90;;;;;;2090719;28;20052;-68
2021/09/28 00:27:02;;;;;;;15.70;14.00;;;17.10;99.90;;;;;;2089927;28;20025;-69
2021/09/28 00:28:03;;;;;;;18.65;16.02;;;17.10;99.90;;;;;;2089658;28;20029;-69
2021/09/28 00:29:04;;;;;;;17.08;15.05;;;17.00;99.90;;;;;;2090294;28;20021;-69
2021/09/28 00:30:05;;;;;;;18.58;15.68;;;17.00;99.90;;;;;;2089500;28;20570;-68
2021/09/28 00:31:05;;;;;;;17.02;15.00;;;17.00;99.90;;;;;;2089742;28;20033;-69
2021/09/28 00:32:06;;;;;;;17.83;15.23;;;17.00;99.90;;;;;;2089757;28;20029;-69
2021/09/28 00:33:07;;;;;;;18.52;16.05;;;17.00;99.90;;;;;;2089789;28;20032;-68
2021/09/28 00:34:07;;;;;;;17.13;15.27;;;17.00;99.90;;;;;;2090287;28;20025;-69
2021/09/28 00:35:08;;;;;;;17.90;15.13;;;17.00;99.90;;;;;;2089922;28;20021;-68
2021/09/28 00:36:09;;;;;;;17.13;14.80;;;17.00;99.90;;;;;;2089784;28;20675;-67
2021/09/28 00:37:10;;;;;;;16.73;14.23;;;17.00;99.90;;;;;;2089689;28;20040;-67
2021/09/28 00:38:10;;;;;;;17.60;15.73;;;17.00;99.90;;;;;;2089746;28;20123;-68
2021/09/28 00:39:11;;;;;;;19.75;15.88;;;17.00;99.90;;;;;;2089746;28;20078;-67
2021/09/28 00:40:12;;;;;;;21.23;16.88;;;17.00;99.90;;;;;;2088991;28;20033;-67
2021/09/28 00:41:12;;;;;;;19.33;16.23;;;17.00;99.90;;;;;;2089783;28;20094;-67
2021/09/28 00:42:13;;;;;;;18.17;16.02;;;17.00;99.90;;;;;;2089854;28;20593;-68
2021/09/28 00:43:14;;;;;;;18.67;15.73;;;17.00;99.90;;;;;;2089710;28;20485;-69
2021/09/28 00:44:14;;;;;;;17.05;14.80;;;17.00;99.90;;;;;;2089767;28;20048;-68
2021/09/28 00:45:15;;;;;;;17.33;14.80;;;17.10;99.90;;;;;;2089627;28;20405;-68
2021/09/28 00:46:16;;;;;;;18.48;15.50;;;17.10;99.90;;;;;;2089506;28;20032;-68
2021/09/28 00:47:17;;;;;;;22.55;16.80;;;17.10;99.90;;;;;;2089846;28;20483;-68
2021/09/28 00:48:17;;;;;;;20.05;16.65;;;17.10;99.90;;;;;;2089778;28;20028;-68
2021/09/28 00:49:19;;;;;;;19.27;16.17;;;17.10;99.90;;;;;;2089150;28;20092;-68
2021/09/28 00:50:20;;;;;;;18.77;16.52;;;17.10;99.90;;;;;;2088587;28;20021;-69
2021/09/28 00:51:21;;;;;;;18.83;15.85;;;17.10;99.90;;;;;;2080978;28;20061;-67
2021/09/28 00:52:22;;;;;;;18.38;16.05;;;17.10;99.90;;;;;;2081114;28;20109;-68
2021/09/28 00:53:22;;;;;;;18.45;15.63;;;17.10;99.90;;;;;;2089177;28;20036;-68
2021/09/28 00:54:23;;;;;;;18.35;15.65;;;17.10;99.90;;;;;;2080884;28;20461;-68
2021/09/28 00:55:27;;;;;;;17.77;14.95;;;17.10;99.90;;;;;;2088962;28;20391;-68
2021/09/28 00:56:28;;;;;;;17.38;15.10;;;17.10;99.90;;;;;;2088870;28;20025;-68
2021/09/28 00:57:29;;;;;;;17.90;15.27;;;17.10;99.90;;;;;;2089059;28;20037;-68
2021/09/28 00:58:30;;;;;;;17.50;15.30;;;17.10;99.90;;;;;;2089587;28;20482;-68
2021/09/28 00:59:31;;;;;;;16.88;15.07;;;17.10;99.90;;;;;;2089048;28;20068;-68
2021/09/28 01:00:32;;;;;;;16.92;14.55;;;17.10;99.90;;;;;;2089300;28;20025;-68
2021/09/28 01:01:34;;;;;;;16.75;14.98;;;17.10;99.90;;;;;;2089555;28;20063;-68
2021/09/28 01:02:37;;;;;;;18.08;15.57;;;17.10;99.90;;;;;;2088586;28;20036;-68
2021/09/28 01:03:38;;;;;;;19.73;16.00;;;17.10;99.90;;;;;;2089558;28;20009;-68
2021/09/28 01:04:39;;;;;;;17.83;15.60;;;17.10;99.90;;;;;;2089659;28;20478;-68
2021/09/28 01:05:40;;;;;;;17.80;15.15;;;17.10;99.90;;;;;;2089772;28;20025;-68
2021/09/28 01:06:41;;;;;;;17.67;15.32;;;17.10;99.90;;;;;;2089645;28;20021;-68
2021/09/28 01:07:41;;;;;;;17.88;15.35;;;17.10;99.90;;;;;;2089514;28;20021;-67
2021/09/28 01:08:42;;;;;;;18.52;15.20;;;17.10;99.90;;;;;;2089353;28;20033;-69
2021/09/28 01:09:43;;;;;;;18.05;15.27;;;17.10;99.90;;;;;;2088559;28;20029;-68
2021/09/28 01:10:43;;;;;;;19.73;16.20;;;17.10;99.90;;;;;;2088629;28;20152;-68
2021/09/28 01:11:44;;;;;;;18.25;16.17;;;17.10;99.90;;;;;;2089017;28;20033;-68
2021/09/28 01:12:44;;;;;;;20.08;16.42;;;17.10;99.90;;;;;;2088872;28;20024;-68
2021/09/28 01:13:45;;;;;;;18.33;16.40;;;17.10;99.90;;;;;;2088769;28;20035;-68
2021/09/28 01:14:46;;;;;;;20.17;16.10;;;17.20;99.90;;;;;;2080648;28;20529;-68
2021/09/28 01:15:58;;;;;;;18.67;16.25;;;17.10;99.90;;;;;;2080620;28;20061;-68
2021/09/28 01:16:59;;;;;;;20.00;17.05;;;17.10;99.90;;;;;;2088961;28;20417;-69
2021/09/28 01:18:01;;;;;;;20.02;16.73;;;17.10;99.90;;;;;;2089568;28;20069;-68
2021/09/28 01:19:02;;;;;;;20.65;17.05;;;17.10;99.90;;;;;;2089545;28;20040;-68
2021/09/28 01:20:05;;;;;;;18.65;16.55;;;17.00;99.90;;;;;;2088811;28;20395;-68
2021/09/28 01:21:11;;;;;;;18.58;15.88;;;17.00;99.90;;;;;;2089465;28;20079;-68
2021/09/28 01:22:15;;;;;;;18.20;15.50;;;17.00;99.90;;;;;;2089481;28;20051;-68
2021/09/28 01:23:15;;;;;;;16.63;14.70;;;17.00;99.90;;;;;;2088718;28;20025;-68
2021/09/28 01:24:16;;;;;;;17.80;15.50;;;17.00;99.90;;;;;;2088856;28;20520;-68
2021/09/28 01:25:17;;;;;;;20.52;17.08;;;17.00;99.90;;;;;;2088713;28;20084;-68
2021/09/28 01:26:23;;;;;;;20.45;17.20;;;17.00;99.90;;;;;;2088895;28;20025;-69
2021/09/28 01:27:23;;;;;;;21.15;17.33;;;17.00;99.90;;;;;;2088937;28;20171;-68
2021/09/28 01:28:24;;;;;;;19.65;16.77;;;17.00;99.90;;;;;;2088782;28;20548;-68
2021/09/28 01:29:24;;;;;;;18.13;15.93;;;17.00;99.90;;;;;;2089564;28;20501;-68
2021/09/28 01:30:25;;;;;;;18.40;16.40;;;17.00;99.90;;;;;;2088564;28;20025;-68
2021/09/28 01:31:26;;;;;;;19.00;16.45;;;17.00;99.90;;;;;;2088541;28;20056;-69
2021/09/28 01:32:27;;;;;;;18.38;16.35;;;17.00;99.90;;;;;;2080596;28;20104;-69
2021/09/28 01:33:27;;;;;;;19.20;16.73;;;17.00;99.90;;;;;;2088704;28;20052;-69
2021/09/28 01:34:28;;;;;;;20.13;16.02;;;17.00;99.90;;;;;;2089568;28;20029;-69
2021/09/28 01:35:29;;;;;;;19.58;16.27;;;16.90;99.90;;;;;;2089338;28;20033;-69
2021/09/28 01:36:30;;;;;;;18.13;15.60;;;16.90;99.90;;;;;;2088701;28;20564;-69
2021/09/28 01:37:31;;;;;;;17.52;15.18;;;16.90;99.90;;;;;;2088716;28;20029;-68
2021/09/28 01:38:32;;;;;;;18.90;15.98;;;16.90;99.90;;;;;;2088887;28;20371;-68
2021/09/28 01:39:32;;;;;;;20.25;16.40;;;16.90;99.90;;;;;;2088718;28;20028;-68
2021/09/28 01:40:34;;;;;;;19.27;16.20;;;16.90;99.90;;;;;;2088860;28;20124;-68
2021/09/28 01:41:35;;;;;;;18.60;15.98;;;16.90;99.90;;;;;;2089246;28;20017;-69
2021/09/28 01:42:35;;;;;;;19.25;16.17;;;16.90;99.90;;;;;;2089251;28;20033;-68
2021/09/28 01:43:36;;;;;;;20.23;16.77;;;16.90;99.90;;;;;;2089279;28;20087;-68
2021/09/28 01:44:37;;;;;;;20.48;16.42;;;16.90;99.90;;;;;;2089197;28;20493;-68
2021/09/28 01:45:39;;;;;;;19.52;16.40;;;16.90;99.90;;;;;;2089255;28;20096;-68
2021/09/28 01:46:42;;;;;;;19.60;16.80;;;16.90;99.90;;;;;;2089316;28;20401;-68
2021/09/28 01:47:43;;;;;;;17.85;15.57;;;16.90;99.90;;;;;;2089256;28;20490;-68
2021/09/28 01:48:52;;;;;;;18.85;16.08;;;16.90;99.90;;;;;;2088365;28;20040;-69
2021/09/28 01:49:53;;;;;;;19.00;16.20;;;16.90;99.90;;;;;;2087801;28;20029;-69
2021/09/28 01:50:53;;;;;;;19.30;15.93;;;16.90;99.90;;;;;;2089264;28;20024;-68
2021/09/28 01:51:54;;;;;;;18.50;16.10;;;16.90;99.90;;;;;;2089189;28;20055;-68
2021/09/28 01:52:54;;;;;;;19.70;17.20;;;16.90;99.90;;;;;;2089180;28;20094;-68
2021/09/28 01:53:55;;;;;;;20.60;16.42;;;16.90;99.90;;;;;;2088373;28;20739;-68
2021/09/28 01:54:55;;;;;;;20.88;16.48;;;16.90;99.90;;;;;;2072040;28;20026;-69
2021/09/28 01:55:56;;;;;;;19.42;15.75;;;16.90;99.90;;;;;;2080264;28;20456;-68
2021/09/28 01:56:57;;;;;;;18.80;16.35;;;16.90;99.90;;;;;;2088853;28;20203;-69
2021/09/28 01:57:58;;;;;;;19.73;16.77;;;16.90;99.90;;;;;;2089120;28;20017;-68
2021/09/28 01:59:01;;;;;;;18.63;15.77;;;16.90;99.90;;;;;;2089023;28;20044;-69
2021/09/28 02:00:03;;;;;;;20.42;16.63;;;16.90;99.90;;;;;;2088177;28;20021;-68
2021/09/28 02:01:12;;;;;;;18.52;16.17;;;16.90;99.90;;;;;;2089104;28;20124;-68
2021/09/28 02:02:13;;;;;;;20.02;16.60;;;16.90;99.90;;;;;;2089149;28;20037;-68
2021/09/28 02:03:13;;;;;;;19.50;16.45;;;16.90;99.90;;;;;;2088970;28;20390;-68
2021/09/28 02:04:14;;;;;;;18.63;15.80;;;16.90;99.90;;;;;;2089074;28;20039;-69
2021/09/28 02:05:15;;;;;;;17.95;15.77;;;16.90;99.90;;;;;;2089284;28;20118;-68
2021/09/28 02:06:21;;;;;;;19.05;15.68;;;16.90;99.90;;;;;;2088994;28;20108;-69
2021/09/28 02:07:21;;;;;;;18.65;15.27;;;16.90;99.90;;;;;;2089157;28;20029;-68
2021/09/28 02:08:22;;;;;;;17.88;15.40;;;16.90;99.90;;;;;;2089197;28;20094;-69
2021/09/28 02:09:22;;;;;;;18.15;16.05;;;16.90;99.90;;;;;;2089229;28;20025;-68
2021/09/28 02:10:23;;;;;;;17.33;15.15;;;16.80;99.90;;;;;;2088204;28;20497;-68
2021/09/28 02:11:24;;;;;;;19.17;16.45;;;16.90;99.90;;;;;;2089189;28;20490;-69
2021/09/28 02:12:24;;;;;;;18.90;16.40;;;16.90;99.90;;;;;;2089031;28;20505;-68
2021/09/28 02:13:25;;;;;;;21.35;17.30;;;16.80;99.90;;;;;;2088859;28;20059;-69
2021/09/28 02:14:29;;;;;;;20.70;17.48;;;16.90;99.90;;;;;;2088171;28;20025;-69
2021/09/28 02:15:29;;;;;;;22.00;17.45;;;16.90;99.90;;;;;;2088403;28;20773;-68
2021/09/28 02:16:30;;;;;;;19.25;16.58;;;16.90;99.90;;;;;;2088339;28;20039;-69
2021/09/28 02:17:31;;;;;;;19.30;16.30;;;16.90;99.90;;;;;;2088213;28;20091;-69
2021/09/28 02:18:31;;;;;;;18.52;16.45;;;16.90;99.90;;;;;;2089015;28;20460;-69
2021/09/28 02:19:32;;;;;;;19.60;16.88;;;16.80;99.90;;;;;;2088996;28;20417;-68
2021/09/28 02:20:33;;;;;;;20.73;17.30;;;16.80;99.90;;;;;;2088095;28;20056;-68
2021/09/28 02:21:33;;;;;;;19.20;16.45;;;16.80;99.90;;;;;;2088977;28;20630;-68
2021/09/28 02:22:35;;;;;;;19.58;16.60;;;16.90;99.90;;;;;;2088939;28;20025;-68
2021/09/28 02:23:35;;;;;;;19.10;16.50;;;16.80;99.90;;;;;;2088855;28;20021;-68
2021/09/28 02:24:36;;;;;;;18.67;16.08;;;16.80;99.90;;;;;;2088860;28;20091;-68
2021/09/28 02:25:36;;;;;;;18.63;16.10;;;16.80;99.90;;;;;;2088865;28;20516;-69
2021/09/28 02:26:37;;;;;;;19.05;16.30;;;16.80;99.90;;;;;;2088977;28;20100;-71
2021/09/28 02:27:39;;;;;;;19.42;16.55;;;16.80;99.90;;;;;;2088894;28;20512;-68
2021/09/28 02:28:40;;;;;;;19.17;16.58;;;16.80;99.90;;;;;;2088885;28;20021;-68
2021/09/28 02:29:40;;;;;;;20.33;17.35;;;16.80;99.90;;;;;;2095935;28;20437;-68
2021/09/28 02:30:41;;;;;;;20.13;17.48;;;16.80;99.90;;;;;;2096039;28;20051;-68
2021/09/28 02:31:41;;;;;;;19.73;17.13;;;16.80;99.90;;;;;;2088903;28;20017;-69
2021/09/28 02:32:42;;;;;;;19.10;16.38;;;16.80;99.90;;;;;;2088915;28;20544;-68
2021/09/28 02:33:43;;;;;;;19.23;16.55;;;16.80;99.90;;;;;;2088854;28;20505;-68
2021/09/28 02:34:44;;;;;;;19.30;16.65;;;16.70;99.90;;;;;;2088884;28;20028;-69
2021/09/28 02:35:45;;;;;;;18.55;16.20;;;16.70;99.90;;;;;;2088898;28;20434;-69
2021/09/28 02:36:45;;;;;;;21.45;17.23;;;16.70;99.90;;;;;;2088844;28;20406;-69
2021/09/28 02:37:46;;;;;;;19.55;16.85;;;16.70;99.90;;;;;;2088892;28;20044;-68
2021/09/28 02:38:48;;;;;;;20.42;16.67;;;16.70;99.90;;;;;;2088753;28;20443;-68
2021/09/28 02:39:48;;;;;;;18.27;16.23;;;16.70;99.90;;;;;;2088475;28;20025;-69
2021/09/28 02:40:49;;;;;;;19.70;16.35;;;16.60;99.90;;;;;;2088844;28;20027;-68
2021/09/28 02:41:49;;;;;;;20.38;16.77;;;16.60;99.90;;;;;;2088897;28;20426;-68
2021/09/28 02:42:50;;;;;;;20.38;16.70;;;16.60;99.90;;;;;;2088403;28;20067;-69
2021/09/28 02:43:51;;;;;;;21.73;17.77;;;16.60;99.90;;;;;;2088711;28;20056;-69
2021/09/28 02:44:55;;;;;;;20.42;17.35;;;16.60;99.90;;;;;;2088729;28;20508;-69
2021/09/28 02:45:56;;;;;;;21.15;17.40;;;16.60;99.90;;;;;;2088808;28;20067;-69
2021/09/28 02:46:56;;;;;;;20.55;16.90;;;16.60;99.90;;;;;;2088791;28;20036;-69
2021/09/28 02:47:57;;;;;;;19.98;16.98;;;16.60;99.90;;;;;;2088760;28;20029;-68
2021/09/28 02:48:58;;;;;;;20.77;17.35;;;16.60;99.90;;;;;;2088779;28;20032;-69
2021/09/28 02:49:59;;;;;;;19.98;17.05;;;16.60;99.90;;;;;;2088016;28;20029;-68
2021/09/28 02:51:00;;;;;;;20.65;17.80;;;16.60;99.90;;;;;;2088689;28;20105;-68
2021/09/28 02:52:01;;;;;;;20.25;17.55;;;16.60;99.90;;;;;;2088729;28;20048;-68
2021/09/28 02:53:02;;;;;;;20.13;17.75;;;16.60;99.90;;;;;;2088224;28;20021;-68
2021/09/28 02:54:02;;;;;;;20.15;17.92;;;16.60;99.90;;;;;;2088039;28;20025;-69
2021/09/28 02:55:05;;;;;;;20.90;17.75;;;16.60;99.90;;;;;;2088702;28;20029;-69
2021/09/28 02:56:05;;;;;;;19.77;17.52;;;16.50;99.90;;;;;;2088785;28;20025;-69
2021/09/28 02:57:06;;;;;;;21.77;18.02;;;16.50;99.90;;;;;;2088553;28;20481;-69
2021/09/28 02:58:07;;;;;;;20.67;17.80;;;16.50;99.90;;;;;;2088679;28;20033;-69
2021/09/28 02:59:08;;;;;;;19.77;17.48;;;16.50;99.90;;;;;;2088554;28;20064;-69
2021/09/28 03:00:09;;;;;;;20.95;17.38;;;16.50;99.90;;;;;;2087879;28;20656;-69
2021/09/28 03:01:10;;;;;;;20.33;17.70;;;16.40;99.90;;;;;;2088687;28;20372;-69
2021/09/28 03:02:11;;;;;;;21.17;17.20;;;16.40;99.90;;;;;;2088716;28;20120;-69
2021/09/28 03:03:11;;;;;;;20.70;17.35;;;16.40;99.90;;;;;;2088603;28;20057;-69
2021/09/28 03:04:12;;;;;;;22.15;18.27;;;16.40;99.90;;;;;;2088616;28;20127;-69
2021/09/28 03:05:12;;;;;;;21.95;18.55;;;16.40;99.90;;;;;;2088589;28;20043;-69
2021/09/28 03:06:13;;;;;;;20.92;18.00;;;16.40;99.90;;;;;;2087937;28;20025;-69
2021/09/28 03:07:14;;;;;;;22.10;18.02;;;16.30;99.90;;;;;;2088086;28;20079;-67
2021/09/28 03:08:14;;;;;;;21.15;18.08;;;16.30;99.90;;;;;;2088172;28;20025;-68
2021/09/28 03:09:15;;;;;;;21.25;18.27;;;16.30;99.90;;;;;;2088298;28;20024;-68
2021/09/28 03:10:15;;;;;;;20.05;17.52;;;16.30;99.90;;;;;;2088033;28;20123;-68
2021/09/28 03:11:16;;;;;;;22.48;18.17;;;16.30;99.90;;;;;;2088618;28;20021;-70
2021/09/28 03:12:17;;;;;;;24.02;18.70;;;16.20;99.90;;;;;;2088778;28;20025;-68
2021/09/28 03:13:17;;;;;;;21.90;17.88;;;16.20;99.90;;;;;;2088533;28;20390;-69
2021/09/28 03:14:18;;;;;;;21.98;17.95;;;16.20;99.90;;;;;;2088718;28;20017;-68
2021/09/28 03:15:19;;;;;;;23.65;19.13;;;16.20;99.90;;;;;;2088885;28;20041;-69
2021/09/28 03:16:20;;;;;;;24.77;19.40;;;16.20;99.90;;;;;;2088035;28;20405;-68
2021/09/28 03:17:21;;;;;;;23.85;18.70;;;16.20;99.90;;;;;;2088109;28;20407;-69
2021/09/28 03:18:21;;;;;;;20.10;17.25;;;16.20;99.90;;;;;;2087949;28;20036;-68
2021/09/28 03:19:24;;;;;;;21.45;18.30;;;16.20;99.90;;;;;;2088147;28;20182;-68
2021/09/28 03:20:25;;;;;;;22.05;18.67;;;16.10;99.90;;;;;;2087143;28;20055;-68
2021/09/28 03:21:25;;;;;;;20.73;17.63;;;16.10;99.90;;;;;;2088056;28;20040;-69
2021/09/28 03:22:26;;;;;;;21.65;18.05;;;16.10;99.90;;;;;;2088528;28;20136;-68
2021/09/28 03:23:26;;;;;;;21.83;18.65;;;16.00;99.90;;;;;;2088252;28;20037;-68
2021/09/28 03:24:27;;;;;;;22.48;18.52;;;16.00;99.90;;;;;;2087838;28;20563;-68
2021/09/28 03:25:28;;;;;;;21.05;18.10;;;16.00;99.90;;;;;;2087957;28;20033;-68
2021/09/28 03:26:28;;;;;;;22.10;18.13;;;16.00;99.90;;;;;;2090121;28;20017;-68
2021/09/28 03:27:29;;;;;;;23.45;18.65;;;16.00;99.90;;;;;;2090409;28;20445;-68
2021/09/28 03:28:31;;;;;;;22.90;18.55;;;15.90;99.90;;;;;;2090394;28;20036;-69
2021/09/28 03:29:32;;;;;;;21.02;17.95;;;15.90;99.90;;;;;;2089656;28;20029;-68
2021/09/28 03:30:33;;;;;;;22.27;18.45;;;15.90;99.90;;;;;;2088853;28;20510;-68
2021/09/28 03:31:34;;;;;;;21.20;17.83;;;15.80;99.90;;;;;;2090447;28;20032;-68
2021/09/28 03:32:36;;;;;;;21.58;17.70;;;15.80;99.90;;;;;;2090394;28;20029;-68
2021/09/28 03:33:37;;;;;;;21.05;17.95;;;15.80;99.90;;;;;;2090133;28;20021;-69
2021/09/28 03:34:37;;;;;;;22.05;17.90;;;15.80;99.90;;;;;;2090061;28;20475;-69
2021/09/28 03:35:38;;;;;;;19.77;17.50;;;15.80;99.90;;;;;;2089770;28;20024;-68
2021/09/28 03:36:38;;;;;;;21.73;18.45;;;15.80;99.90;;;;;;2089653;28;20021;-68
2021/09/28 03:37:42;;;;;;;20.98;17.77;;;15.80;99.90;;;;;;2090246;28;20478;-68
2021/09/28 03:38:42;;;;;;;21.92;18.23;;;15.80;99.90;;;;;;2089716;28;20053;-68
2021/09/28 03:39:43;;;;;;;21.95;18.40;;;15.70;99.90;;;;;;2081431;28;20041;-69
2021/09/28 03:40:44;;;;;;;22.60;18.50;;;15.70;99.90;;;;;;2088932;28;20025;-68
2021/09/28 03:41:45;;;;;;;23.05;19.27;;;15.70;99.90;;;;;;2090360;28;20036;-68
2021/09/28 03:42:47;;;;;;;22.48;18.77;;;15.70;99.90;;;;;;2090180;28;20116;-68
2021/09/28 03:43:47;;;;;;;22.63;18.88;;;15.60;99.90;;;;;;2090242;28;20024;-68
2021/09/28 03:44:48;;;;;;;22.98;18.88;;;15.60;99.90;;;;;;2090196;28;20438;-68
2021/09/28 03:45:48;;;;;;;23.77;19.00;;;15.60;99.90;;;;;;2090268;28;20029;-67
2021/09/28 03:46:49;;;;;;;26.23;19.48;;;15.60;99.90;;;;;;2090295;28;20029;-68
2021/09/28 03:47:50;;;;;;;23.77;19.45;;;15.60;99.90;;;;;;2090001;28;20040;-68
2021/09/28 03:48:50;;;;;;;22.35;18.80;;;15.60;99.90;;;;;;2090179;28;20123;-68
2021/09/28 03:49:51;;;;;;;22.38;18.23;;;15.60;99.90;;;;;;2088919;28;20100;-68
2021/09/28 03:50:52;;;;;;;24.33;19.30;;;15.50;99.90;;;;;;2089539;28;20033;-68
2021/09/28 03:51:52;;;;;;;23.38;19.13;;;15.50;99.90;;;;;;2090153;28;20459;-68
2021/09/28 03:52:54;;;;;;;23.35;19.25;;;15.50;99.90;;;;;;2090112;28;20391;-68
2021/09/28 03:53:55;;;;;;;23.95;19.60;;;15.50;99.90;;;;;;2090028;28;20425;-67
2021/09/28 03:54:55;;;;;;;25.65;19.88;;;15.50;99.90;;;;;;2089529;28;20033;-68
2021/09/28 03:55:56;;;;;;;23.45;19.35;;;15.50;99.90;;;;;;2089515;28;20029;-68
2021/09/28 03:56:57;;;;;;;23.92;18.90;;;15.50;99.90;;;;;;2090034;28;20045;-68
2021/09/28 03:57:59;;;;;;;22.92;19.27;;;15.50;99.90;;;;;;2090059;28;20025;-68
2021/09/28 03:59:00;;;;;;;24.42;19.27;;;15.50;99.90;;;;;;2090016;28;20036;-68
2021/09/28 04:00:02;;;;;;;24.13;19.60;;;15.50;99.90;;;;;;2089318;28;20404;-68
2021/09/28 04:01:04;;;;;;;23.48;19.13;;;15.50;99.90;;;;;;2090125;28;20033;-68
2021/09/28 04:02:05;;;;;;;23.20;18.77;;;15.50;99.90;;;;;;2089436;28;20028;-67
2021/09/28 04:03:07;;;;;;;24.00;19.60;;;15.50;99.90;;;;;;2089423;28;20517;-68
2021/09/28 04:04:09;;;;;;;22.85;19.02;;;15.50;99.90;;;;;;2090118;28;20079;-69
2021/09/28 04:05:10;;;;;;;21.65;18.67;;;15.50;99.90;;;;;;2089922;28;20040;-69
2021/09/28 04:06:11;;;;;;;22.98;18.17;;;15.50;99.90;;;;;;2089509;28;20082;-69
2021/09/28 04:07:12;;;;;;;24.30;18.98;;;15.50;99.90;;;;;;2089582;28;20037;-69
2021/09/28 04:08:12;;;;;;;24.95;19.42;;;15.40;99.90;;;;;;2089534;28;20112;-68
2021/09/28 04:09:13;;;;;;;23.85;19.05;;;15.50;99.90;;;;;;2081282;28;20042;-69
2021/09/28 04:10:14;;;;;;;24.98;19.15;;;15.40;99.90;;;;;;2080477;28;20391;-68
2021/09/28 04:11:15;;;;;;;22.20;18.73;;;15.40;99.90;;;;;;2089441;28;20482;-69
2021/09/28 04:12:18;;;;;;;23.75;18.75;;;15.40;99.90;;;;;;2089816;28;20108;-69
2021/09/28 04:13:19;;;;;;;22.83;19.27;;;15.40;99.90;;;;;;2090072;28;20049;-69
2021/09/28 04:14:19;;;;;;;26.15;19.38;;;15.40;99.90;;;;;;2090034;28;20025;-67
2021/09/28 04:15:24;;;;;;;22.48;18.80;;;15.40;99.90;;;;;;2089907;28;20037;-69
2021/09/28 04:16:27;;;;;;;25.13;19.00;;;15.40;99.90;;;;;;2090059;28;20501;-66
2021/09/28 04:17:28;;;;;;;23.50;19.70;;;15.40;99.90;;;;;;2090090;28;20037;-67
2021/09/28 04:18:28;;;;;;;24.70;19.80;;;15.30;99.90;;;;;;2089901;28;20104;-68
2021/09/28 04:19:29;;;;;;;24.83;19.88;;;15.30;99.90;;;;;;2089914;28;20398;-69
2021/09/28 04:20:32;;;;;;;22.52;18.95;;;15.30;99.90;;;;;;2089203;28;20107;-68
2021/09/28 04:21:34;;;;;;;23.15;18.98;;;15.30;99.90;;;;;;2090020;28;20033;-68
2021/09/28 04:22:34;;;;;;;24.13;19.55;;;15.30;99.90;;;;;;2089454;28;20731;-67
2021/09/28 04:23:35;;;;;;;24.90;20.25;;;15.30;99.90;;;;;;2089241;28;20090;-68
2021/09/28 04:24:36;;;;;;;26.20;21.08;;;15.30;99.90;;;;;;2089535;28;20029;-67
2021/09/28 04:25:37;;;;;;;28.27;22.08;;;15.30;99.90;;;;;;2089746;28;20785;-66
2021/09/28 04:26:38;;;;;;;30.08;22.83;;;15.30;99.90;;;;;;2089576;28;20029;-67
2021/09/28 04:27:39;;;;;;;27.77;22.40;;;15.30;99.90;;;;;;2089976;28;20029;-67
2021/09/28 04:28:40;;;;;;;25.92;21.50;;;15.30;99.90;;;;;;2089900;28;20131;-68
2021/09/28 04:29:40;;;;;;;28.33;22.73;;;15.40;99.90;;;;;;2089867;28;20021;-67
2021/09/28 04:30:41;;;;;;;27.17;21.45;;;15.40;99.90;;;;;;2089033;28;20033;-67
2021/09/28 04:31:41;;;;;;;26.98;21.63;;;15.40;99.90;;;;;;2089222;28;20029;-67
2021/09/28 04:32:44;;;;;;;26.02;20.98;;;15.40;99.90;;;;;;2089298;28;20033;-66
2021/09/28 04:33:45;;;;;;;28.48;22.10;;;15.30;99.90;;;;;;2089782;28;20024;-67
2021/09/28 04:34:46;;;;;;;27.00;21.40;;;15.30;99.90;;;;;;2089875;28;20017;-67
2021/09/28 04:35:46;;;;;;;25.75;20.25;;;15.30;99.90;;;;;;2089872;28;20047;-67
2021/09/28 04:36:47;;;;;;;24.88;20.58;;;15.30;99.90;;;;;;2089562;28;20052;-67
2021/09/28 04:37:48;;;;;;;25.75;21.25;;;15.30;99.90;;;;;;2089983;28;20035;-67
2021/09/28 04:38:49;;;;;;;26.17;20.73;;;15.40;99.90;;;;;;2089892;28;20701;-66
2021/09/28 04:39:50;;;;;;;24.83;20.48;;;15.40;99.90;;;;;;2089120;28;20027;-67
2021/09/28 04:40:50;;;;;;;24.63;20.13;;;15.40;99.90;;;;;;2089113;28;20036;-66
2021/09/28 04:41:51;;;;;;;24.65;20.25;;;15.40;99.90;;;;;;2097436;28;20108;-67
2021/09/28 04:42:52;;;;;;;23.67;19.70;;;15.40;99.90;;;;;;2089858;28;20378;-67
2021/09/28 04:43:53;;;;;;;23.88;19.42;;;15.40;99.90;;;;;;2089789;28;20032;-67
2021/09/28 04:44:53;;;;;;;22.45;18.98;;;15.40;99.90;;;;;;2089693;28;20462;-66
2021/09/28 04:45:54;;;;;;;25.30;19.92;;;15.40;99.90;;;;;;2089164;28;20589;-67
2021/09/28 04:46:54;;;;;;;23.48;19.15;;;15.40;99.90;;;;;;2088949;28;20516;-67
2021/09/28 04:47:55;;;;;;;22.15;19.00;;;15.40;99.90;;;;;;2089026;28;20159;-67
2021/09/28 04:48:56;;;;;;;24.77;19.83;;;15.40;99.90;;;;;;2080789;28;20034;-67
2021/09/28 04:49:57;;;;;;;26.00;19.67;;;15.30;99.90;;;;;;2088431;28;20037;-67
2021/09/28 04:50:57;;;;;;;24.17;19.65;;;15.30;99.90;;;;;;2089724;28;20043;-67
2021/09/28 04:51:58;;;;;;;23.40;19.88;;;15.30;99.90;;;;;;2089085;28;20452;-67
2021/09/28 04:52:58;;;;;;;24.27;19.55;;;15.30;99.90;;;;;;2080809;28;20026;-67
2021/09/28 04:53:59;;;;;;;25.52;19.92;;;15.30;99.90;;;;;;2089009;28;20021;-67
2021/09/28 04:54:59;;;;;;;25.42;20.15;;;15.30;99.90;;;;;;2089634;28;20494;-67
2021/09/28 04:56:00;;;;;;;24.50;20.52;;;15.20;99.90;;;;;;2089773;28;20116;-67
2021/09/28 04:57:01;;;;;;;26.60;21.52;;;15.20;99.90;;;;;;2089633;28;20041;-68
2021/09/28 04:58:01;;;;;;;26.48;21.50;;;15.20;99.90;;;;;;2089666;28;20039;-67
2021/09/28 04:59:03;;;;;;;26.88;21.63;;;15.20;99.90;;;;;;2089744;28;20041;-66
2021/09/28 05:00:05;;;;;;;25.83;20.85;;;15.20;99.90;;;;;;2088784;28;20036;-66
2021/09/28 05:01:05;;;;;;;25.50;20.50;;;15.20;99.90;;;;;;2089691;28;20052;-66
2021/09/28 05:02:06;;;;;;;24.92;20.40;;;15.20;99.90;;;;;;2089711;28;20468;-66
2021/09/28 05:03:07;;;;;;;25.98;20.60;;;15.20;99.90;;;;;;2080807;28;20025;-66
2021/09/28 05:04:07;;;;;;;30.13;21.77;;;15.20;99.90;;;;;;2080840;28;20029;-66
2021/09/28 05:05:08;;;;;;;29.25;21.25;;;15.20;99.90;;;;;;2089524;28;20036;-66
2021/09/28 05:06:09;;;;;;;26.98;21.10;;;15.20;99.90;;;;;;2089554;28;20734;-66
2021/09/28 05:07:09;;;;;;;26.95;21.20;;;15.30;99.90;;;;;;2089621;28;20393;-66
2021/09/28 05:08:10;;;;;;;25.67;20.88;;;15.30;99.90;;;;;;2089407;28;20104;-66
2021/09/28 05:09:10;;;;;;;25.67;21.30;;;15.30;99.90;;;;;;2089631;28;20523;-66
2021/09/28 05:10:11;;;;;;;26.48;20.98;;;15.40;99.90;;;;;;2088804;28;20032;-66